CheckWX is a tool to help pilots better visualize weather data.  It is not intended as a substitute for an official pre-flight weather briefing.

06:51:24 UTC

KFSD METAR
Joe Foss Field Airport
Sioux Falls, South Dakota, USA
Current

55 mins ago

KFSD 190556Z 33015KT 10SM CLR M19/M24 A3038 RMK AO2 PK WND 33029/0514 SLP327 60000 T11941239 11178 21194 410221194 51018 $
Observed
Jan-19 @ 05:56 UTC
Wind
  • 330° at 15 KTS
Visibility
10 SM
Flight Rules
VFR
Cloud Levels
  • Clear skies
Temperature
-19°C / -2°F
Dewpoint
-24°C / -11°F
Humidity
65%
Altimeter
30.38" Hg
Pressure
1028.82 hPa
Previous

2 hours ago

KFSD 190456Z 33020G31KT 10SM CLR M18/M23 A3036 RMK AO2 PK WND 33034/0443 SLP322 T11831233 $
Observed
Jan-19 @ 04:56 UTC
Wind
  • 330° at 20 KTS
  • Gusting to 31 KTS
Visibility
10 SM
Flight Rules
VFR
Cloud Levels
  • Clear skies
Temperature
-18°C / -0°F
Dewpoint
-23°C / -9°F
Humidity
65%
Altimeter
30.36" Hg
Pressure
1028.12 hPa
Previous

3 hours ago

KFSD 190356Z 32023G31KT 10SM CLR M18/M23 A3034 RMK AO2 PK WND 32037/0341 SLP315 T11831233 $
Observed
Jan-19 @ 03:56 UTC
Wind
  • 320° at 23 KTS
  • Gusting to 31 KTS
Visibility
10 SM
Flight Rules
VFR
Cloud Levels
  • Clear skies
Temperature
-18°C / -0°F
Dewpoint
-23°C / -9°F
Humidity
65%
Altimeter
30.34" Hg
Pressure
1027.42 hPa